Anzahl Datensätze: 25
min. Temperatur: -0.3 °C
max. Temperatur: 1.2 °C
max. Windgeschwindigkeit: 11.2 km/h
Niederschlagsumme: 0.0 mm
| Datum |
Zeit |
Temp °C |
Feuchte % |
Taupunkt °C |
Luftdruck hPa |
Wind km/h |
Windrichtung |
Strahlung w/m² |
Niederschlag mm |
|---|---|---|---|---|---|---|---|---|---|
| 03.01.2025 | 11:30 | 0.6 | 87 | -1.3 | 1024.5 | 0.0 | WNW | 81 | 0.0 |
| 03.01.2025 | 12:00 | 0.7 | 86 | -1.4 | 1024.5 | 0.0 | WSW | 83 | 0.0 |
| 03.01.2025 | 12:30 | 0.7 | 86 | -1.4 | 1024.3 | 0.0 | W | 146 | 0.0 |
| 03.01.2025 | 13:00 | 0.8 | 84 | -1.6 | 1024.2 | 0.0 | NW | 83 | 0.0 |
| 03.01.2025 | 13:30 | 0.6 | 83 | -2.0 | 1024.0 | 0.0 | W | 105 | 0.0 |
| 03.01.2025 | 14:00 | 1.2 | 82 | -1.5 | 1023.6 | 0.0 | W | 39 | 0.0 |
| 03.01.2025 | 14:30 | 1.0 | 82 | -1.7 | 1023.6 | 0.0 | W | 113 | 0.0 |
| 03.01.2025 | 15:00 | 0.6 | 80 | -2.5 | 1023.5 | 0.0 | W | 30 | 0.0 |
| 03.01.2025 | 15:30 | 0.6 | 82 | -2.1 | 1023.7 | 0.0 | WNW | 46 | 0.0 |
| 03.01.2025 | 16:00 | 0.3 | 83 | -2.2 | 1024.1 | 0.0 | W | 21 | 0.0 |
| 03.01.2025 | 16:30 | -0.2 | 84 | -2.6 | 1024.4 | 0.0 | W | 11 | 0.0 |
| 03.01.2025 | 17:00 | -0.2 | 85 | -2.4 | 1024.6 | 0.0 | W | 0 | 0.0 |
| 03.01.2025 | 17:30 | -0.1 | 85 | -2.3 | 1024.5 | 0.0 | W | 0 | 0.0 |
| 03.01.2025 | 18:00 | -0.3 | 86 | -2.4 | 1024.7 | 0.0 | WNW | 0 | 0.0 |
| 03.01.2025 | 18:30 | -0.3 | 87 | -2.2 | 1024.8 | 0.0 | NW | 0 | 0.0 |
| 03.01.2025 | 19:00 | -0.3 | 87 | -2.2 | 1025.0 | 0.0 | WNW | 0 | 0.0 |
| 03.01.2025 | 19:30 | -0.3 | 88 | -2.0 | 1025.3 | 0.0 | WNW | 0 | 0.0 |
| 03.01.2025 | 20:00 | -0.2 | 88 | -1.9 | 1025.6 | 0.0 | WNW | 0 | 0.0 |
| 03.01.2025 | 20:30 | 0.1 | 89 | -1.5 | 1025.6 | 0.0 | W | 0 | 0.0 |
| 03.01.2025 | 21:00 | 0.2 | 89 | -1.4 | 1025.6 | 0.0 | NW | 0 | 0.0 |
| 03.01.2025 | 21:30 | 0.3 | 89 | -1.3 | 1025.8 | 0.0 | WSW | 0 | 0.0 |
| 03.01.2025 | 22:00 | 0.2 | 89 | -1.4 | 1026.0 | 0.0 | NNW | 0 | 0.0 |
| 03.01.2025 | 22:30 | 0.3 | 89 | -1.3 | 1025.8 | 0.0 | WNW | 0 | 0.0 |
| 03.01.2025 | 23:00 | 0.2 | 89 | -1.4 | 1025.8 | 0.0 | NW | 0 | 0.0 |
| 03.01.2025 | 23:30 | -0.2 | 89 | -1.8 | 1026.2 | 0.0 | W | 0 | 0.0 |